sensor_id;sensor_type;location;lat;lon;timestamp;pressure;altitude;pressure_sealevel;temperature;humidity
44663;BME280;30381;52.754;18.258;2023-02-18T00:01:29;99743.73;;;5.56;100.00
44663;BME280;30381;52.754;18.258;2023-02-18T00:03:57;99745.46;;;5.55;100.00
44663;BME280;30381;52.754;18.258;2023-02-18T00:06:26;99745.64;;;5.55;100.00
44663;BME280;30381;52.754;18.258;2023-02-18T00:08:54;99742.91;;;5.55;100.00
44663;BME280;30381;52.754;18.258;2023-02-18T00:11:22;99751.73;;;5.56;100.00
44663;BME280;30381;52.754;18.258;2023-02-18T00:13:54;99761.39;;;5.56;100.00
44663;BME280;30381;52.754;18.258;2023-02-18T00:16:21;99761.24;;;5.53;100.00
44663;BME280;30381;52.754;18.258;2023-02-18T00:18:48;99750.96;;;5.52;100.00
44663;BME280;30381;52.754;18.258;2023-02-18T00:21:16;99754.14;;;5.52;100.00
44663;BME280;30381;52.754;18.258;2023-02-18T00:23:42;99745.18;;;5.52;100.00
44663;BME280;30381;52.754;18.258;2023-02-18T00:26:13;99753.77;;;5.51;100.00
44663;BME280;30381;52.754;18.258;2023-02-18T00:28:41;99748.58;;;5.47;100.00
44663;BME280;30381;52.754;18.258;2023-02-18T00:31:20;99761.61;;;5.44;100.00
44663;BME280;30381;52.754;18.258;2023-02-18T00:33:46;99764.48;;;5.41;100.00
44663;BME280;30381;52.754;18.258;2023-02-18T00:36:14;99768.22;;;5.39;100.00
44663;BME280;30381;52.754;18.258;2023-02-18T00:38:50;99765.59;;;5.37;100.00
44663;BME280;30381;52.754;18.258;2023-02-18T00:41:16;99765.86;;;5.36;100.00
44663;BME280;30381;52.754;18.258;2023-02-18T00:43:43;99767.88;;;5.35;100.00
44663;BME280;30381;52.754;18.258;2023-02-18T00:46:10;99761.98;;;5.35;100.00
44663;BME280;30381;52.754;18.258;2023-02-18T00:48:36;99773.94;;;5.35;100.00
44663;BME280;30381;52.754;18.258;2023-02-18T00:51:03;99769.21;;;5.33;100.00
44663;BME280;30381;52.754;18.258;2023-02-18T00:53:30;99769.42;;;5.33;100.00
44663;BME280;30381;52.754;18.258;2023-02-18T00:55:57;99779.56;;;5.33;100.00
44663;BME280;30381;52.754;18.258;2023-02-18T00:58:24;99775.02;;;5.34;100.00
44663;BME280;30381;52.754;18.258;2023-02-18T01:00:51;99772.09;;;5.34;100.00
44663;BME280;30381;52.754;18.258;2023-02-18T01:03:18;99774.99;;;5.33;100.00
44663;BME280;30381;52.754;18.258;2023-02-18T01:05:44;99772.92;;;5.34;100.00
44663;BME280;30381;52.754;18.258;2023-02-18T01:08:11;99788.95;;;5.34;100.00
44663;BME280;30381;52.754;18.258;2023-02-18T01:10:43;99784.80;;;5.34;100.00
44663;BME280;30381;52.754;18.258;2023-02-18T01:13:11;99790.44;;;5.35;100.00
44663;BME280;30381;52.754;18.258;2023-02-18T01:15:39;99785.16;;;5.34;100.00
44663;BME280;30381;52.754;18.258;2023-02-18T01:18:06;99783.20;;;5.33;100.00
44663;BME280;30381;52.754;18.258;2023-02-18T01:20:38;99787.81;;;5.29;100.00
44663;BME280;30381;52.754;18.258;2023-02-18T01:23:05;99783.59;;;5.28;100.00
44663;BME280;30381;52.754;18.258;2023-02-18T01:25:32;99782.63;;;5.26;100.00
44663;BME280;30381;52.754;18.258;2023-02-18T01:27:59;99786.91;;;5.25;100.00
44663;BME280;30381;52.754;18.258;2023-02-18T01:30:25;99786.48;;;5.23;100.00
44663;BME280;30381;52.754;18.258;2023-02-18T01:32:51;99785.52;;;5.24;100.00
44663;BME280;30381;52.754;18.258;2023-02-18T01:35:19;99791.53;;;5.25;100.00
44663;BME280;30381;52.754;18.258;2023-02-18T01:37:46;99797.02;;;5.24;100.00
44663;BME280;30381;52.754;18.258;2023-02-18T01:40:14;99797.36;;;5.21;100.00
44663;BME280;30381;52.754;18.258;2023-02-18T01:42:41;99812.64;;;5.17;100.00
44663;BME280;30381;52.754;18.258;2023-02-18T01:48:25;99807.21;;;5.14;100.00
44663;BME280;30381;52.754;18.258;2023-02-18T01:50:57;99811.25;;;5.14;100.00
44663;BME280;30381;52.754;18.258;2023-02-18T01:53:35;99809.22;;;5.12;100.00
44663;BME280;30381;52.754;18.258;2023-02-18T01:56:05;99809.73;;;5.09;100.00
44663;BME280;30381;52.754;18.258;2023-02-18T01:58:36;99805.78;;;5.04;100.00
44663;BME280;30381;52.754;18.258;2023-02-18T02:01:04;99812.78;;;5.00;100.00
44663;BME280;30381;52.754;18.258;2023-02-18T02:03:31;99816.43;;;4.97;100.00
44663;BME280;30381;52.754;18.258;2023-02-18T02:05:57;99818.48;;;4.94;100.00
44663;BME280;30381;52.754;18.258;2023-02-18T02:08:23;99813.02;;;4.92;100.00
44663;BME280;30381;52.754;18.258;2023-02-18T02:13:45;99816.79;;;4.89;100.00
44663;BME280;30381;52.754;18.258;2023-02-18T02:16:42;99832.84;;;4.86;100.00
44663;BME280;30381;52.754;18.258;2023-02-18T02:22:39;99829.63;;;4.81;100.00
44663;BME280;30381;52.754;18.258;2023-02-18T02:37:02;99838.27;;;4.74;100.00
44663;BME280;30381;52.754;18.258;2023-02-18T02:39:37;99843.77;;;4.73;100.00
44663;BME280;30381;52.754;18.258;2023-02-18T02:47:35;99853.17;;;4.66;100.00
44663;BME280;30381;52.754;18.258;2023-02-18T02:52:52;99858.88;;;4.60;100.00
44663;BME280;30381;52.754;18.258;2023-02-18T02:55:21;99865.63;;;4.57;100.00
44663;BME280;30381;52.754;18.258;2023-02-18T02:57:51;99862.95;;;4.54;100.00
44663;BME280;30381;52.754;18.258;2023-02-18T03:00:25;99866.59;;;4.53;100.00
44663;BME280;30381;52.754;18.258;2023-02-18T03:08:46;99863.04;;;4.55;100.00
44663;BME280;30381;52.754;18.258;2023-02-18T03:11:17;99859.13;;;4.54;100.00
44663;BME280;30381;52.754;18.258;2023-02-18T03:13:48;99850.23;;;4.55;100.00
44663;BME280;30381;52.754;18.258;2023-02-18T03:19:13;99845.53;;;4.57;100.00
44663;BME280;30381;52.754;18.258;2023-02-18T03:21:48;99849.20;;;4.56;100.00
44663;BME280;30381;52.754;18.258;2023-02-18T03:24:22;99853.69;;;4.55;100.00
44663;BME280;30381;52.754;18.258;2023-02-18T03:26:59;99850.60;;;4.55;100.00
44663;BME280;30381;52.754;18.258;2023-02-18T03:29:32;99844.80;;;4.55;100.00
44663;BME280;30381;52.754;18.258;2023-02-18T03:32:03;99853.02;;;4.57;100.00
44663;BME280;30381;52.754;18.258;2023-02-18T03:34:37;99860.50;;;4.60;100.00
44663;BME280;30381;52.754;18.258;2023-02-18T03:37:08;99866.75;;;4.61;100.00
44663;BME280;30381;52.754;18.258;2023-02-18T03:39:37;99872.65;;;4.62;100.00
44663;BME280;30381;52.754;18.258;2023-02-18T03:42:05;99873.35;;;4.62;100.00
44663;BME280;30381;52.754;18.258;2023-02-18T03:44:33;99872.52;;;4.62;100.00
44663;BME280;30381;52.754;18.258;2023-02-18T03:47:00;99863.20;;;4.62;100.00
44663;BME280;30381;52.754;18.258;2023-02-18T03:49:26;99861.02;;;4.61;100.00
44663;BME280;30381;52.754;18.258;2023-02-18T03:51:53;99859.05;;;4.58;100.00
44663;BME280;30381;52.754;18.258;2023-02-18T03:54:19;99863.86;;;4.55;100.00
44663;BME280;30381;52.754;18.258;2023-02-18T03:56:45;99856.43;;;4.52;100.00
44663;BME280;30381;52.754;18.258;2023-02-18T03:59:11;99872.66;;;4.50;100.00
44663;BME280;30381;52.754;18.258;2023-02-18T04:01:38;99875.04;;;4.48;100.00
44663;BME280;30381;52.754;18.258;2023-02-18T04:04:04;99884.02;;;4.47;100.00
44663;BME280;30381;52.754;18.258;2023-02-18T04:06:31;99879.61;;;4.46;100.00
44663;BME280;30381;52.754;18.258;2023-02-18T04:08:57;99881.01;;;4.47;100.00
44663;BME280;30381;52.754;18.258;2023-02-18T04:11:24;99877.06;;;4.48;100.00
44663;BME280;30381;52.754;18.258;2023-02-18T04:13:50;99875.98;;;4.46;100.00
44663;BME280;30381;52.754;18.258;2023-02-18T04:16:16;99879.40;;;4.45;100.00
44663;BME280;30381;52.754;18.258;2023-02-18T04:18:43;99877.48;;;4.42;100.00
44663;BME280;30381;52.754;18.258;2023-02-18T04:21:12;99882.27;;;4.40;100.00
44663;BME280;30381;52.754;18.258;2023-02-18T04:23:38;99881.11;;;4.39;100.00
44663;BME280;30381;52.754;18.258;2023-02-18T04:26:04;99880.24;;;4.40;100.00
44663;BME280;30381;52.754;18.258;2023-02-18T04:28:30;99878.31;;;4.40;100.00
44663;BME280;30381;52.754;18.258;2023-02-18T04:30:59;99890.38;;;4.40;100.00
44663;BME280;30381;52.754;18.258;2023-02-18T04:33:25;99894.46;;;4.39;100.00
44663;BME280;30381;52.754;18.258;2023-02-18T04:35:51;99891.80;;;4.37;100.00
44663;BME280;30381;52.754;18.258;2023-02-18T04:38:17;99887.56;;;4.35;100.00
44663;BME280;30381;52.754;18.258;2023-02-18T04:40:43;99886.04;;;4.34;100.00
44663;BME280;30381;52.754;18.258;2023-02-18T04:43:10;99886.33;;;4.35;100.00
44663;BME280;30381;52.754;18.258;2023-02-18T04:45:36;99884.81;;;4.34;100.00
44663;BME280;30381;52.754;18.258;2023-02-18T04:48:02;99894.30;;;4.30;100.00
44663;BME280;30381;52.754;18.258;2023-02-18T04:50:28;99897.83;;;4.27;100.00
44663;BME280;30381;52.754;18.258;2023-02-18T04:52:54;99893.48;;;4.24;100.00
44663;BME280;30381;52.754;18.258;2023-02-18T04:55:20;99890.64;;;4.21;100.00
44663;BME280;30381;52.754;18.258;2023-02-18T04:57:47;99900.52;;;4.19;100.00
44663;BME280;30381;52.754;18.258;2023-02-18T05:00:15;99901.92;;;4.19;100.00
44663;BME280;30381;52.754;18.258;2023-02-18T05:02:42;99899.53;;;4.22;100.00
44663;BME280;30381;52.754;18.258;2023-02-18T05:05:09;99897.52;;;4.25;100.00
44663;BME280;30381;52.754;18.258;2023-02-18T05:07:35;99900.83;;;4.27;100.00
44663;BME280;30381;52.754;18.258;2023-02-18T05:10:03;99905.80;;;4.27;100.00
44663;BME280;30381;52.754;18.258;2023-02-18T05:12:30;99910.08;;;4.27;100.00
44663;BME280;30381;52.754;18.258;2023-02-18T05:14:56;99907.82;;;4.27;100.00
44663;BME280;30381;52.754;18.258;2023-02-18T05:17:23;99905.19;;;4.28;100.00
44663;BME280;30381;52.754;18.258;2023-02-18T05:19:49;99935.39;;;4.30;100.00
44663;BME280;30381;52.754;18.258;2023-02-18T05:22:15;99930.24;;;4.31;100.00
44663;BME280;30381;52.754;18.258;2023-02-18T05:24:41;99932.27;;;4.30;100.00
44663;BME280;30381;52.754;18.258;2023-02-18T05:27:07;99922.76;;;4.28;100.00
44663;BME280;30381;52.754;18.258;2023-02-18T05:29:34;99929.06;;;4.26;100.00
44663;BME280;30381;52.754;18.258;2023-02-18T05:32:00;99926.84;;;4.26;100.00
44663;BME280;30381;52.754;18.258;2023-02-18T05:34:26;99937.55;;;4.25;100.00
44663;BME280;30381;52.754;18.258;2023-02-18T05:36:52;99937.60;;;4.20;100.00
44663;BME280;30381;52.754;18.258;2023-02-18T05:39:18;99940.66;;;4.16;100.00
44663;BME280;30381;52.754;18.258;2023-02-18T05:41:45;99942.16;;;4.13;100.00
44663;BME280;30381;52.754;18.258;2023-02-18T05:44:11;99958.95;;;4.13;100.00
44663;BME280;30381;52.754;18.258;2023-02-18T05:46:56;99959.40;;;4.11;100.00
44663;BME280;30381;52.754;18.258;2023-02-18T05:49:23;99963.66;;;4.09;100.00
44663;BME280;30381;52.754;18.258;2023-02-18T05:51:49;99970.31;;;4.10;100.00
44663;BME280;30381;52.754;18.258;2023-02-18T05:54:15;99981.48;;;4.09;100.00
44663;BME280;30381;52.754;18.258;2023-02-18T05:56:41;99980.77;;;4.09;100.00
44663;BME280;30381;52.754;18.258;2023-02-18T05:59:08;99983.41;;;4.10;100.00
44663;BME280;30381;52.754;18.258;2023-02-18T06:01:34;99995.95;;;4.10;100.00
44663;BME280;30381;52.754;18.258;2023-02-18T06:04:00;100004.16;;;4.11;100.00
44663;BME280;30381;52.754;18.258;2023-02-18T06:06:26;100008.41;;;4.13;100.00
44663;BME280;30381;52.754;18.258;2023-02-18T06:08:52;100007.13;;;4.13;100.00
44663;BME280;30381;52.754;18.258;2023-02-18T06:11:18;99995.17;;;4.14;100.00
44663;BME280;30381;52.754;18.258;2023-02-18T06:13:44;100002.55;;;4.16;100.00
44663;BME280;30381;52.754;18.258;2023-02-18T06:16:10;99998.13;;;4.20;100.00
44663;BME280;30381;52.754;18.258;2023-02-18T06:18:37;99993.87;;;4.25;100.00
44663;BME280;30381;52.754;18.258;2023-02-18T06:21:03;100008.15;;;4.31;100.00
44663;BME280;30381;52.754;18.258;2023-02-18T06:23:29;100019.16;;;4.38;100.00
44663;BME280;30381;52.754;18.258;2023-02-18T06:25:56;100022.38;;;4.42;100.00
44663;BME280;30381;52.754;18.258;2023-02-18T06:28:22;100035.70;;;4.48;100.00
44663;BME280;30381;52.754;18.258;2023-02-18T06:30:49;100025.72;;;4.53;100.00
44663;BME280;30381;52.754;18.258;2023-02-18T06:33:15;100038.34;;;4.58;100.00
44663;BME280;30381;52.754;18.258;2023-02-18T06:35:41;100033.71;;;4.62;100.00
44663;BME280;30381;52.754;18.258;2023-02-18T06:38:08;100034.41;;;4.66;100.00
44663;BME280;30381;52.754;18.258;2023-02-18T06:40:34;100037.19;;;4.69;100.00
44663;BME280;30381;52.754;18.258;2023-02-18T06:43:00;100039.16;;;4.70;100.00
44663;BME280;30381;52.754;18.258;2023-02-18T06:45:26;100045.27;;;4.70;100.00
44663;BME280;30381;52.754;18.258;2023-02-18T06:47:52;100047.98;;;4.70;100.00
44663;BME280;30381;52.754;18.258;2023-02-18T06:50:18;100056.98;;;4.70;100.00
44663;BME280;30381;52.754;18.258;2023-02-18T06:52:44;100056.52;;;4.70;100.00
44663;BME280;30381;52.754;18.258;2023-02-18T06:55:11;100059.20;;;4.71;100.00
44663;BME280;30381;52.754;18.258;2023-02-18T06:57:37;100054.45;;;4.73;100.00
44663;BME280;30381;52.754;18.258;2023-02-18T07:00:04;100054.07;;;4.76;100.00
44663;BME280;30381;52.754;18.258;2023-02-18T07:02:31;100057.17;;;4.82;100.00
44663;BME280;30381;52.754;18.258;2023-02-18T07:04:57;100051.76;;;4.88;100.00
44663;BME280;30381;52.754;18.258;2023-02-18T07:07:23;100062.86;;;4.94;100.00
44663;BME280;30381;52.754;18.258;2023-02-18T07:09:49;100064.40;;;5.00;100.00
44663;BME280;30381;52.754;18.258;2023-02-18T07:12:15;100062.39;;;5.05;100.00
44663;BME280;30381;52.754;18.258;2023-02-18T07:14:41;100061.71;;;5.09;100.00
44663;BME280;30381;52.754;18.258;2023-02-18T07:17:08;100059.27;;;5.14;100.00
44663;BME280;30381;52.754;18.258;2023-02-18T07:19:34;100064.48;;;5.26;100.00
44663;BME280;30381;52.754;18.258;2023-02-18T07:22:00;100067.00;;;5.39;100.00
44663;BME280;30381;52.754;18.258;2023-02-18T07:24:26;100067.18;;;5.55;100.00
44663;BME280;30381;52.754;18.258;2023-02-18T07:26:58;100063.69;;;5.66;100.00
44663;BME280;30381;52.754;18.258;2023-02-18T07:29:28;100070.88;;;5.73;100.00
44663;BME280;30381;52.754;18.258;2023-02-18T07:31:58;100070.69;;;5.76;100.00
44663;BME280;30381;52.754;18.258;2023-02-18T07:34:46;100077.79;;;5.80;100.00
44663;BME280;30381;52.754;18.258;2023-02-18T07:37:12;100078.94;;;5.82;100.00
44663;BME280;30381;52.754;18.258;2023-02-18T07:39:41;100079.98;;;5.84;100.00
44663;BME280;30381;52.754;18.258;2023-02-18T07:42:17;100078.09;;;5.88;100.00
44663;BME280;30381;52.754;18.258;2023-02-18T07:44:44;100081.59;;;5.92;100.00
44663;BME280;30381;52.754;18.258;2023-02-18T07:47:13;100086.05;;;5.95;100.00
44663;BME280;30381;52.754;18.258;2023-02-18T07:49:43;100089.86;;;6.05;100.00
44663;BME280;30381;52.754;18.258;2023-02-18T07:52:09;100081.84;;;6.15;100.00
44663;BME280;30381;52.754;18.258;2023-02-18T07:54:36;100078.82;;;6.17;100.00
44663;BME280;30381;52.754;18.258;2023-02-18T07:57:20;100080.89;;;6.19;100.00
44663;BME280;30381;52.754;18.258;2023-02-18T07:59:46;100077.91;;;6.21;100.00
44663;BME280;30381;52.754;18.258;2023-02-18T08:02:20;100082.36;;;6.22;100.00
44663;BME280;30381;52.754;18.258;2023-02-18T08:04:48;100085.04;;;6.22;100.00
44663;BME280;30381;52.754;18.258;2023-02-18T08:07:29;100082.00;;;6.21;100.00
44663;BME280;30381;52.754;18.258;2023-02-18T08:10:06;100087.30;;;6.22;100.00
44663;BME280;30381;52.754;18.258;2023-02-18T08:12:32;100096.86;;;6.26;100.00
44663;BME280;30381;52.754;18.258;2023-02-18T08:14:59;100097.92;;;6.37;100.00
44663;BME280;30381;52.754;18.258;2023-02-18T08:17:25;100101.99;;;6.47;100.00
44663;BME280;30381;52.754;18.258;2023-02-18T08:19:58;100102.88;;;6.58;100.00
44663;BME280;30381;52.754;18.258;2023-02-18T08:22:30;100102.73;;;6.68;100.00
44663;BME280;30381;52.754;18.258;2023-02-18T08:25:24;100112.26;;;6.75;100.00
44663;BME280;30381;52.754;18.258;2023-02-18T08:28:10;100107.15;;;6.80;100.00
44663;BME280;30381;52.754;18.258;2023-02-18T08:30:37;100106.70;;;6.87;100.00
44663;BME280;30381;52.754;18.258;2023-02-18T08:33:04;100112.52;;;6.98;100.00
44663;BME280;30381;52.754;18.258;2023-02-18T08:35:34;100116.88;;;7.08;100.00
44663;BME280;30381;52.754;18.258;2023-02-18T08:38:04;100120.36;;;7.07;100.00
44663;BME280;30381;52.754;18.258;2023-02-18T08:40:30;100115.50;;;7.03;100.00
44663;BME280;30381;52.754;18.258;2023-02-18T08:42:57;100118.31;;;6.95;100.00
44663;BME280;30381;52.754;18.258;2023-02-18T08:45:23;100118.85;;;6.87;100.00
44663;BME280;30381;52.754;18.258;2023-02-18T08:47:49;100118.95;;;6.78;100.00
44663;BME280;30381;52.754;18.258;2023-02-18T08:50:16;100120.23;;;6.70;100.00
44663;BME280;30381;52.754;18.258;2023-02-18T08:52:44;100125.30;;;6.64;100.00
44663;BME280;30381;52.754;18.258;2023-02-18T08:55:11;100127.90;;;6.60;100.00
44663;BME280;30381;52.754;18.258;2023-02-18T08:57:41;100129.34;;;6.60;100.00
44663;BME280;30381;52.754;18.258;2023-02-18T09:00:10;100127.40;;;6.60;100.00
44663;BME280;30381;52.754;18.258;2023-02-18T09:02:36;100120.80;;;6.59;100.00
44663;BME280;30381;52.754;18.258;2023-02-18T09:05:04;100122.13;;;6.59;100.00
44663;BME280;30381;52.754;18.258;2023-02-18T09:07:53;100118.20;;;6.59;100.00
44663;BME280;30381;52.754;18.258;2023-02-18T09:10:19;100120.56;;;6.62;100.00
44663;BME280;30381;52.754;18.258;2023-02-18T09:12:47;100121.41;;;6.64;100.00
44663;BME280;30381;52.754;18.258;2023-02-18T09:15:14;100126.42;;;6.67;100.00
44663;BME280;30381;52.754;18.258;2023-02-18T09:17:40;100121.84;;;6.72;100.00
44663;BME280;30381;52.754;18.258;2023-02-18T09:20:10;100123.27;;;6.77;100.00
44663;BME280;30381;52.754;18.258;2023-02-18T09:22:37;100126.06;;;6.78;100.00
44663;BME280;30381;52.754;18.258;2023-02-18T09:25:05;100123.44;;;6.80;100.00
44663;BME280;30381;52.754;18.258;2023-02-18T09:27:42;100123.36;;;6.82;100.00
44663;BME280;30381;52.754;18.258;2023-02-18T09:30:12;100128.91;;;6.80;100.00
44663;BME280;30381;52.754;18.258;2023-02-18T09:32:43;100133.13;;;6.77;100.00
44663;BME280;30381;52.754;18.258;2023-02-18T09:35:14;100136.42;;;6.81;100.00
44663;BME280;30381;52.754;18.258;2023-02-18T09:37:51;100138.31;;;6.85;100.00
44663;BME280;30381;52.754;18.258;2023-02-18T09:40:28;100138.85;;;6.89;100.00
44663;BME280;30381;52.754;18.258;2023-02-18T09:43:02;100138.91;;;6.91;100.00
44663;BME280;30381;52.754;18.258;2023-02-18T09:45:33;100136.68;;;6.94;100.00
44663;BME280;30381;52.754;18.258;2023-02-18T09:48:01;100138.77;;;6.96;100.00
44663;BME280;30381;52.754;18.258;2023-02-18T09:50:32;100132.98;;;6.96;100.00
44663;BME280;30381;52.754;18.258;2023-02-18T09:53:02;100137.68;;;6.89;100.00
44663;BME280;30381;52.754;18.258;2023-02-18T10:00:14;100131.16;;;7.11;100.00
44663;BME280;30381;52.754;18.258;2023-02-18T10:03:34;100124.67;;;7.36;100.00
44663;BME280;30381;52.754;18.258;2023-02-18T10:06:39;100127.64;;;7.57;100.00
44663;BME280;30381;52.754;18.258;2023-02-18T10:15:39;100131.71;;;7.98;100.00
44663;BME280;30381;52.754;18.258;2023-02-18T10:18:45;100122.70;;;8.05;100.00
44663;BME280;30381;52.754;18.258;2023-02-18T10:21:45;100120.53;;;8.11;100.00
44663;BME280;30381;52.754;18.258;2023-02-18T10:24:56;100129.52;;;8.14;100.00
44663;BME280;30381;52.754;18.258;2023-02-18T10:27:34;100127.33;;;8.24;100.00
44663;BME280;30381;52.754;18.258;2023-02-18T10:30:45;100126.78;;;8.27;100.00
44663;BME280;30381;52.754;18.258;2023-02-18T10:33:35;100122.27;;;8.17;100.00
44663;BME280;30381;52.754;18.258;2023-02-18T10:36:34;100112.41;;;8.14;100.00
44663;BME280;30381;52.754;18.258;2023-02-18T10:41:51;100106.38;;;8.28;100.00
44663;BME280;30381;52.754;18.258;2023-02-18T10:44:33;100104.41;;;8.34;100.00
44663;BME280;30381;52.754;18.258;2023-02-18T10:50:00;100092.80;;;8.44;100.00
44663;BME280;30381;52.754;18.258;2023-02-18T10:52:37;100087.95;;;8.44;100.00
44663;BME280;30381;52.754;18.258;2023-02-18T10:55:10;100080.49;;;8.43;100.00
44663;BME280;30381;52.754;18.258;2023-02-18T10:57:51;100077.27;;;8.36;100.00
44663;BME280;30381;52.754;18.258;2023-02-18T11:00:21;100074.31;;;8.39;100.00
44663;BME280;30381;52.754;18.258;2023-02-18T11:03:27;100070.45;;;8.31;100.00
44663;BME280;30381;52.754;18.258;2023-02-18T11:08:49;100059.55;;;8.34;100.00
44663;BME280;30381;52.754;18.258;2023-02-18T11:11:42;100065.55;;;8.42;100.00
44663;BME280;30381;52.754;18.258;2023-02-18T11:14:12;100061.73;;;8.45;100.00
44663;BME280;30381;52.754;18.258;2023-02-18T11:16:43;100060.11;;;8.35;100.00
44663;BME280;30381;52.754;18.258;2023-02-18T11:19:34;100060.95;;;8.19;100.00
44663;BME280;30381;52.754;18.258;2023-02-18T11:24:38;100064.14;;;7.92;100.00
44663;BME280;30381;52.754;18.258;2023-02-18T11:27:26;100061.83;;;7.88;100.00
44663;BME280;30381;52.754;18.258;2023-02-18T11:30:00;100057.64;;;7.83;100.00
44663;BME280;30381;52.754;18.258;2023-02-18T11:32:28;100058.22;;;7.74;100.00
44663;BME280;30381;52.754;18.258;2023-02-18T11:34:56;100051.17;;;7.72;100.00
44663;BME280;30381;52.754;18.258;2023-02-18T11:37:23;100046.58;;;7.69;100.00
44663;BME280;30381;52.754;18.258;2023-02-18T11:39:52;100043.55;;;7.66;100.00
44663;BME280;30381;52.754;18.258;2023-02-18T11:42:22;100033.98;;;7.63;100.00
44663;BME280;30381;52.754;18.258;2023-02-18T11:44:58;100019.80;;;7.58;100.00
44663;BME280;30381;52.754;18.258;2023-02-18T11:47:34;100018.17;;;7.53;100.00
44663;BME280;30381;52.754;18.258;2023-02-18T11:50:14;100013.88;;;7.49;100.00
44663;BME280;30381;52.754;18.258;2023-02-18T11:52:48;100008.88;;;7.49;100.00
44663;BME280;30381;52.754;18.258;2023-02-18T11:55:19;100008.09;;;7.52;100.00
44663;BME280;30381;52.754;18.258;2023-02-18T11:57:51;100007.73;;;7.53;100.00
44663;BME280;30381;52.754;18.258;2023-02-18T12:00:36;100005.64;;;7.50;100.00
44663;BME280;30381;52.754;18.258;2023-02-18T12:03:26;100005.11;;;7.49;100.00
44663;BME280;30381;52.754;18.258;2023-02-18T12:06:14;100003.14;;;7.52;100.00
44663;BME280;30381;52.754;18.258;2023-02-18T12:11:48;99985.81;;;7.52;100.00
44663;BME280;30381;52.754;18.258;2023-02-18T12:14:21;99990.38;;;7.51;100.00
44663;BME280;30381;52.754;18.258;2023-02-18T12:30:26;99984.38;;;7.35;100.00
44663;BME280;30381;52.754;18.258;2023-02-18T12:33:24;99974.75;;;7.35;100.00
44663;BME280;30381;52.754;18.258;2023-02-18T12:51:47;99955.67;;;7.28;100.00
44663;BME280;30381;52.754;18.258;2023-02-18T13:05:30;99945.50;;;7.23;100.00
44663;BME280;30381;52.754;18.258;2023-02-18T13:15:00;99907.23;;;7.42;100.00
44663;BME280;30381;52.754;18.258;2023-02-18T13:17:33;99902.01;;;7.50;100.00
44663;BME280;30381;52.754;18.258;2023-02-18T13:20:04;99902.35;;;7.54;100.00
44663;BME280;30381;52.754;18.258;2023-02-18T13:22:32;99899.59;;;7.53;100.00
44663;BME280;30381;52.754;18.258;2023-02-18T13:24:59;99893.84;;;7.53;100.00
44663;BME280;30381;52.754;18.258;2023-02-18T13:30:49;99889.02;;;7.54;100.00
44663;BME280;30381;52.754;18.258;2023-02-18T13:33:22;99890.87;;;7.50;100.00
44663;BME280;30381;52.754;18.258;2023-02-18T13:39:10;99892.95;;;7.29;100.00
44663;BME280;30381;52.754;18.258;2023-02-18T13:41:48;99902.82;;;7.18;100.00
